Time;durP1;ratioP1;P1;durP2;ratioP2;P2;SDS_P1;SDS_P2;PMS_P1;PMS_P2;Temp;Humidity;BMP_temperature;BMP_pressure;BME280_temperature;BME280_humidity;BME280_pressure;Samples;Min_cycle;Max_cycle;Signal;HPM_P1;HPM_P2
2021/01/03 00:01:58;;;;;;;79.95;38.88;;;;;;;3.03;98.59;101554.84;4960756;28;20046;-84
2021/01/03 00:04:23;;;;;;;80.85;37.95;;;;;;;3.16;98.09;101605.09;4952926;28;20065;-82
2021/01/03 00:06:50;;;;;;;84.93;38.60;;;;;;;3.11;98.58;101598.38;4963629;28;20117;-81
2021/01/03 00:09:15;;;;;;;82.80;38.63;;;;;;;3.10;98.81;101592.25;4978792;28;20109;-82
2021/01/03 00:11:41;;;;;;;75.75;36.25;;;;;;;2.87;98.80;101559.25;4966847;28;20030;-85
2021/01/03 00:14:07;;;;;;;80.53;39.58;;;;;;;3.14;98.22;101598.22;4966469;28;20122;-82
2021/01/03 00:16:32;;;;;;;88.03;40.45;;;;;;;3.03;98.63;101597.03;4962157;28;20134;-81
2021/01/03 00:18:58;;;;;;;76.78;37.30;;;;;;;2.91;98.48;101568.72;4965445;28;20121;-81
2021/01/03 00:21:23;;;;;;;75.05;35.40;;;;;;;3.10;98.86;101600.16;4964054;28;20050;-81
2021/01/03 00:23:49;;;;;;;80.30;37.53;;;;;;;3.09;98.62;101595.84;4960262;28;20062;-81
2021/01/03 00:26:14;;;;;;;76.45;35.47;;;;;;;3.14;98.74;101595.56;4974816;28;20030;-81
2021/01/03 00:28:40;;;;;;;82.35;37.05;;;;;;;3.17;98.62;101596.25;4959246;28;20541;-83
2021/01/03 00:31:05;;;;;;;81.72;38.03;;;;;;;3.16;98.64;101588.44;4974450;28;20445;-82
2021/01/03 00:33:31;;;;;;;93.65;39.28;;;;;;;2.80;98.63;101534.16;4961290;28;20509;-83
2021/01/03 00:35:56;;;;;;;85.05;38.60;;;;;;;3.16;98.57;101597.16;4993859;28;20034;-83
2021/01/03 00:38:22;;;;;;;93.80;40.88;;;;;;;3.14;98.93;101596.41;4995258;28;20130;-82
2021/01/03 00:40:47;;;;;;;83.15;37.67;;;;;;;3.17;98.75;101596.25;4965113;28;20030;-81
2021/01/03 00:43:13;;;;;;;92.70;40.47;;;;;;;2.98;98.89;101561.31;4964598;28;20117;-81
2021/01/03 00:45:39;;;;;;;87.95;40.17;;;;;;;3.02;98.48;101570.72;4981436;28;20058;-81
2021/01/03 00:48:06;;;;;;;93.28;41.40;;;;;;;3.13;98.69;101584.16;4962384;28;20031;-81
2021/01/03 00:50:31;;;;;;;99.05;43.08;;;;;;;3.16;99.05;101591.91;4967293;28;20031;-81
2021/01/03 00:52:57;;;;;;;92.32;40.88;;;;;;;3.18;98.99;101589.19;4964623;28;20122;-80
2021/01/03 00:55:22;;;;;;;93.07;39.92;;;;;;;3.10;98.76;101579.06;4967270;28;20106;-81
2021/01/03 00:57:48;;;;;;;94.97;40.58;;;;;;;2.93;99.01;101552.78;4958416;28;20027;-81
2021/01/03 01:00:24;;;;;;;95.72;42.15;;;;;;;2.89;99.47;101544.22;4952276;28;20029;-81
2021/01/03 01:02:50;;;;;;;93.68;39.75;;;;;;;3.03;99.42;101562.75;4974591;28;20050;-83
2021/01/03 01:05:16;;;;;;;96.35;41.92;;;;;;;3.10;99.39;101578.22;4959412;28;20037;-80
2021/01/03 01:07:41;;;;;;;89.68;39.85;;;;;;;3.03;99.78;101554.84;4980046;28;20023;-82
2021/01/03 01:10:08;;;;;;;98.28;41.15;;;;;;;3.22;99.18;101585.41;4950199;28;20424;-82
2021/01/03 01:12:34;;;;;;;89.68;39.78;;;;;;;3.21;99.12;101594.28;4979524;28;20069;-81
2021/01/03 01:15:03;;;;;;;91.63;39.83;;;;;;;3.23;99.28;101587.13;4938818;28;20107;-81
2021/01/03 01:17:28;;;;;;;;;;;;;;;3.20;99.01;101590.78;4969137;28;20069;-81
2021/01/03 01:19:54;;;;;;;91.18;38.47;;;;;;;3.19;98.96;101589.09;4968611;28;19957;-81
2021/01/03 01:22:19;;;;;;;89.88;40.35;;;;;;;3.22;99.04;101591.56;4978833;28;20716;-83
2021/01/03 01:24:45;;;;;;;95.90;41.08;;;;;;;3.05;98.91;101555.56;4970967;28;20562;-81
2021/01/03 01:27:10;;;;;;;88.57;39.47;;;;;;;3.26;99.13;101589.59;4965160;28;20045;-82
2021/01/03 01:29:36;;;;;;;85.50;38.50;;;;;;;3.11;99.09;101578.13;4985024;28;20398;-81
2021/01/03 01:32:01;;;;;;;91.70;39.28;;;;;;;3.20;98.84;101593.44;4966924;28;20130;-81
2021/01/03 01:34:27;;;;;;;88.60;38.03;;;;;;;2.95;98.77;101567.56;4971746;28;20557;-82
2021/01/03 01:36:52;;;;;;;87.15;39.85;;;;;;;3.16;98.56;101599.81;4965254;28;20126;-82
2021/01/03 01:39:18;;;;;;;83.90;38.20;;;;;;;3.18;98.15;101600.59;4967978;28;20106;-82
2021/01/03 01:41:43;;;;;;;81.70;36.55;;;;;;;3.21;98.59;101604.81;4951542;28;20035;-81
2021/01/03 01:44:09;;;;;;;82.13;36.10;;;;;;;3.17;98.32;101601.50;4988262;28;20121;-83
2021/01/03 01:46:40;;;;;;;90.25;38.85;;;;;;;3.10;98.78;101586.97;4968727;28;20347;-82
2021/01/03 01:49:08;;;;;;;94.47;39.33;;;;;;;2.96;98.73;101560.53;4965896;28;20038;-81
2021/01/03 01:51:35;;;;;;;95.25;41.45;;;;;;;3.13;98.51;101584.16;4951728;28;20058;-82
2021/01/03 01:54:12;;;;;;;87.05;38.75;;;;;;;3.15;98.81;101599.91;4955500;28;20042;-83
2021/01/03 01:56:59;;;;;;;97.45;40.47;;;;;;;3.18;98.77;101600.59;4982541;28;20109;-82
2021/01/03 01:59:52;;;;;;;90.63;38.72;;;;;;;3.17;98.32;101595.41;4967445;28;20579;-81
2021/01/03 02:02:19;;;;;;;102.78;39.20;;;;;;;3.14;98.96;101598.22;4969346;28;20410;-82
2021/01/03 02:04:49;;;;;;;99.40;40.60;;;;;;;3.03;98.74;101578.56;4954642;28;20109;-80
2021/01/03 02:07:22;;;;;;;105.32;43.05;;;;;;;2.99;98.69;101581.44;4960634;28;20116;-83
2021/01/03 02:10:16;;;;;;;103.20;41.95;;;;;;;3.10;98.77;101599.31;4978964;28;20493;-82
2021/01/03 02:12:45;;;;;;;105.80;41.75;;;;;;;3.04;98.83;101596.09;4970097;28;20031;-82
2021/01/03 02:15:16;;;;;;;99.82;40.72;;;;;;;2.87;98.90;101578.53;4953982;28;20035;-81
2021/01/03 02:17:43;;;;;;;105.30;42.28;;;;;;;3.00;99.42;101604.22;4979680;28;20038;-81
2021/01/03 02:20:09;;;;;;;110.45;41.90;;;;;;;2.94;99.00;101601.94;4951843;28;20030;-81
2021/01/03 02:22:41;;;;;;;94.25;38.85;;;;;;;2.57;99.12;101539.78;4967352;28;20573;-81
2021/01/03 02:25:08;;;;;;;89.80;38.17;;;;;;;2.84;98.58;101576.09;4967610;28;20077;-82
2021/01/03 02:27:39;;;;;;;94.00;40.00;;;;;;;2.96;98.65;101606.19;4980669;28;20035;-82
2021/01/03 02:30:05;;;;;;;86.00;36.20;;;;;;;2.91;98.54;101600.34;4968148;28;20018;-80
2021/01/03 02:32:31;;;;;;;84.68;36.97;;;;;;;2.90;98.63;101602.13;4968252;28;20105;-80
2021/01/03 02:34:56;;;;;;;82.53;35.88;;;;;;;2.58;98.37;101553.81;4968972;28;20030;-80
2021/01/03 02:37:34;;;;;;;90.03;37.60;;;;;;;2.85;99.05;101604.13;4991851;28;20501;-80
2021/01/03 02:40:08;;;;;;;92.15;36.58;;;;;;;2.84;98.48;101597.19;4993891;28;20026;-80
2021/01/03 02:42:35;;;;;;;91.65;37.17;;;;;;;2.64;98.94;101568.44;4979182;28;20061;-82
2021/01/03 02:45:01;;;;;;;96.63;36.95;;;;;;;2.85;98.85;101604.13;4999223;28;20544;-80
2021/01/03 02:47:31;;;;;;;89.63;35.22;;;;;;;2.88;98.82;101611.06;4982624;28;20031;-80
2021/01/03 02:49:57;;;;;;;94.05;36.90;;;;;;;2.81;99.22;101610.53;4998811;28;20118;-80
2021/01/03 02:52:34;;;;;;;94.43;36.83;;;;;;;2.88;99.01;101600.50;4980250;28;20126;-79
2021/01/03 02:55:00;;;;;;;91.80;36.50;;;;;;;2.47;98.78;101540.38;4968934;28;20053;-79
2021/01/03 02:57:25;;;;;;;102.03;40.05;;;;;;;2.83;98.88;101603.41;4965422;28;20569;-80
2021/01/03 02:59:51;;;;;;;103.57;37.40;;;;;;;2.76;98.97;101594.09;4938660;28;20406;-79
2021/01/03 03:02:17;;;;;;;96.88;38.45;;;;;;;2.79;99.06;101601.84;4964968;28;20038;-79
2021/01/03 03:04:43;;;;;;;103.18;38.65;;;;;;;2.80;99.45;101605.31;4969863;28;20478;-79
2021/01/03 03:07:08;;;;;;;112.47;41.47;;;;;;;2.79;99.69;101611.53;4969791;28;20062;-80
2021/01/03 03:09:34;;;;;;;106.93;38.42;;;;;;;2.87;99.29;101612.81;4981567;28;20117;-80
2021/01/03 03:11:59;;;;;;;113.78;40.33;;;;;;;2.26;99.17;101503.69;4948367;28;20051;-79
2021/01/03 03:14:25;;;;;;;115.78;40.17;;;;;;;2.83;99.46;101606.03;4970825;28;20591;-82
2021/01/03 03:16:57;;;;;;;117.80;42.42;;;;;;;2.86;99.23;101597.09;4965528;28;20110;-82
2021/01/03 03:19:23;;;;;;;122.32;42.67;;;;;;;2.60;99.80;101563.31;4963676;28;20166;-82
2021/01/03 03:21:50;;;;;;;130.30;44.75;;;;;;;2.85;99.69;101598.03;4948846;28;20573;-79
2021/01/03 03:24:15;;;;;;;125.03;44.55;;;;;;;2.87;100.00;101598.81;4967466;28;21086;-79
2021/01/03 03:26:41;;;;;;;125.07;44.22;;;;;;;2.80;100.00;101603.56;4959570;28;20031;-79
2021/01/03 03:29:06;;;;;;;127.65;44.25;;;;;;;2.78;100.00;101594.03;4948064;28;20034;-79
2021/01/03 03:31:32;;;;;;;131.55;44.38;;;;;;;2.80;100.00;101594.78;4963896;28;20081;-80
2021/01/03 03:33:57;;;;;;;126.68;43.08;;;;;;;2.64;100.00;101558.75;4969174;28;20122;-80
2021/01/03 03:36:23;;;;;;;124.90;43.15;;;;;;;2.85;100.00;101601.50;4981022;28;20031;-79
2021/01/03 03:38:48;;;;;;;121.32;41.83;;;;;;;2.72;100.00;101574.97;4965790;28;20045;-80
2021/01/03 03:41:20;;;;;;;121.57;43.15;;;;;;;2.90;100.00;101594.22;4968339;28;20313;-79
2021/01/03 03:43:47;;;;;;;127.43;42.85;;;;;;;2.88;99.85;101595.22;4969786;28;20398;-80
2021/01/03 03:46:13;;;;;;;120.13;42.72;;;;;;;2.88;100.00;101593.44;4977368;28;20062;-81
2021/01/03 03:48:38;;;;;;;123.75;44.08;;;;;;;2.85;100.00;101577.78;4961315;28;20223;-80
2021/01/03 03:51:04;;;;;;;116.43;39.78;;;;;;;2.91;99.99;101588.00;4961840;28;20030;-79
2021/01/03 03:53:29;;;;;;;112.63;42.83;;;;;;;2.91;100.00;101590.63;4967227;28;20035;-80
2021/01/03 03:55:55;;;;;;;108.35;40.20;;;;;;;2.86;99.70;101587.38;4967332;28;20113;-81
2021/01/03 03:58:21;;;;;;;104.13;40.78;;;;;;;2.89;99.49;101595.13;4965117;28;20484;-81
2021/01/03 04:00:46;;;;;;;102.20;38.25;;;;;;;2.91;99.39;101590.63;4966871;28;20057;-79
2021/01/03 04:03:11;;;;;;;93.85;36.88;;;;;;;2.91;99.18;101593.28;4967767;28;20521;-79
2021/01/03 04:05:37;;;;;;;90.03;36.13;;;;;;;2.86;99.01;101578.66;4964195;28;20279;-81
2021/01/03 04:08:02;;;;;;;90.15;37.35;;;;;;;2.95;98.61;101593.09;4977971;28;20161;-81
2021/01/03 04:10:29;;;;;;;87.22;35.78;;;;;;;2.93;98.50;101587.91;4966000;28;20027;-80
2021/01/03 04:12:54;;;;;;;94.45;37.20;;;;;;;2.96;98.38;101590.38;4982837;28;20034;-80
2021/01/03 04:15:20;;;;;;;93.45;36.97;;;;;;;2.82;98.28;101567.44;4968649;28;20034;-80
2021/01/03 04:17:45;;;;;;;84.82;35.47;;;;;;;2.91;98.71;101595.91;4994508;28;20130;-80
2021/01/03 04:20:17;;;;;;;87.88;35.03;;;;;;;2.90;98.27;101585.47;4977219;28;20038;-80
2021/01/03 04:22:43;;;;;;;81.38;34.00;;;;;;;2.67;98.32;101555.91;4965810;28;20110;-82
2021/01/03 04:25:09;;;;;;;81.20;35.55;;;;;;;2.65;98.08;101544.59;4963965;28;20508;-82
2021/01/03 04:27:35;;;;;;;80.00;34.70;;;;;;;2.95;97.71;101590.47;4960994;28;20035;-80
2021/01/03 04:30:00;;;;;;;76.38;33.75;;;;;;;2.96;98.24;101597.44;4949338;28;20035;-80
2021/01/03 04:32:26;;;;;;;79.93;34.08;;;;;;;2.96;98.35;101595.66;4962273;28;20050;-81
2021/01/03 04:34:51;;;;;;;79.93;35.08;;;;;;;2.99;98.15;101597.25;4964503;28;20086;-80
2021/01/03 04:37:17;;;;;;;85.82;36.58;;;;;;;2.54;98.02;101544.34;4968454;28;20119;-80
2021/01/03 04:39:43;;;;;;;83.68;35.72;;;;;;;2.93;98.51;101598.44;4961998;28;20058;-82
2021/01/03 04:42:11;;;;;;;89.15;36.13;;;;;;;2.94;97.86;101596.69;4940599;28;20035;-81
2021/01/03 04:44:38;;;;;;;84.05;34.95;;;;;;;2.98;97.76;101600.84;4964990;28;20592;-80
2021/01/03 04:47:13;;;;;;;86.65;35.60;;;;;;;2.97;97.82;101596.50;4977744;28;20086;-80
2021/01/03 04:49:45;;;;;;;91.85;35.83;;;;;;;2.89;97.83;101604.84;4976256;28;20061;-81
2021/01/03 04:52:21;;;;;;;89.53;35.30;;;;;;;2.86;98.80;101610.28;4993219;28;20576;-81
2021/01/03 04:54:54;;;;;;;91.70;36.20;;;;;;;2.91;98.36;101600.34;4961310;28;20494;-81
2021/01/03 04:57:24;;;;;;;86.65;35.35;;;;;;;2.91;98.72;101608.25;4960382;28;20035;-81
2021/01/03 04:59:50;;;;;;;84.20;35.47;;;;;;;2.68;98.48;101568.16;4960091;28;20445;-81
2021/01/03 05:02:34;;;;;;;82.68;34.65;;;;;;;2.89;98.50;101607.47;4963230;28;20054;-82
2021/01/03 05:05:27;;;;;;;81.05;32.42;;;;;;;2.91;98.37;101608.25;4957079;28;20063;-81
2021/01/03 05:08:16;;;;;;;83.10;33.15;;;;;;;2.89;98.52;101608.31;4975244;28;20078;-82
2021/01/03 05:10:42;;;;;;;89.88;35.70;;;;;;;2.80;98.40;101589.50;4960701;28;20031;-80
2021/01/03 05:13:42;;;;;;;82.82;33.00;;;;;;;2.90;98.31;101604.75;4993576;28;20058;-80
2021/01/03 05:16:12;;;;;;;84.80;34.75;;;;;;;2.92;98.24;101604.66;4938512;28;20046;-80
2021/01/03 05:18:37;;;;;;;87.35;34.50;;;;;;;2.43;98.04;101537.06;4954669;28;20426;-80
2021/01/03 05:21:06;;;;;;;88.43;34.95;;;;;;;2.75;97.99;101574.81;4972829;28;20047;-81
2021/01/03 05:23:32;;;;;;;72.68;33.33;;;;;;;2.75;97.62;101580.09;4992506;28;20038;-80
2021/01/03 05:25:57;;;;;;;83.53;33.85;;;;;;;2.94;97.98;101612.50;4973738;28;20085;-79
2021/01/03 05:28:25;;;;;;;81.28;34.75;;;;;;;2.89;97.91;101610.13;4977194;28;20053;-80
2021/01/03 05:30:51;;;;;;;83.90;34.70;;;;;;;2.83;97.54;101621.84;4956189;28;20022;-80
2021/01/03 05:33:27;;;;;;;80.18;33.95;;;;;;;2.72;97.83;101597.84;4958214;28;20039;-80
2021/01/03 05:35:53;;;;;;;75.68;32.38;;;;;;;2.83;97.80;101621.00;4960990;28;20177;-80
2021/01/03 05:38:34;;;;;;;88.97;35.55;;;;;;;2.64;97.64;101584.25;4961108;28;20049;-80
2021/01/03 05:41:44;;;;;;;84.43;35.78;;;;;;;2.82;98.30;101624.56;4946134;28;20022;-80
2021/01/03 05:44:12;;;;;;;79.75;33.28;;;;;;;2.81;98.22;101625.50;4976118;28;20759;-80
2021/01/03 05:46:41;;;;;;;80.57;34.22;;;;;;;2.66;98.08;101609.56;4978460;28;20036;-80
2021/01/03 05:49:10;;;;;;;83.05;34.28;;;;;;;2.80;98.04;101622.00;4968822;28;20090;-79
2021/01/03 05:51:40;;;;;;;;;;;;;;;2.83;97.96;101623.63;4964425;28;20031;-79
2021/01/03 05:54:38;;;;;;;76.88;33.33;;;;;;;2.86;97.91;101628.75;4986292;28;19918;-80
2021/01/03 05:57:05;;;;;;;82.63;34.40;;;;;;;2.85;97.98;101627.88;4966744;28;20113;-80
2021/01/03 05:59:31;;;;;;;88.55;35.35;;;;;;;2.85;97.87;101633.13;4983442;28;20046;-80
2021/01/03 06:02:08;;;;;;;83.35;35.03;;;;;;;2.81;97.65;101636.91;4962938;28;20039;-83
2021/01/03 06:04:33;;;;;;;79.20;34.25;;;;;;;2.82;97.91;101638.59;4969167;28;20030;-80
2021/01/03 06:07:04;;;;;;;87.35;35.75;;;;;;;2.56;98.19;101600.47;4968447;28;20122;-81
2021/01/03 06:09:37;;;;;;;82.20;34.83;;;;;;;2.85;97.74;101646.31;4969817;28;20050;-80
2021/01/03 06:12:07;;;;;;;72.88;33.65;;;;;;;2.86;98.01;101648.03;4964264;28;20070;-80
2021/01/03 06:14:33;;;;;;;75.13;34.25;;;;;;;2.89;98.09;101645.22;4971782;28;20080;-80
2021/01/03 06:17:32;;;;;;;78.88;35.13;;;;;;;2.88;98.72;101650.59;4975755;28;20054;-80
2021/01/03 06:20:27;;;;;;;81.93;33.45;;;;;;;2.69;97.96;101619.13;4965690;28;20027;-80
2021/01/03 06:23:10;;;;;;;84.07;34.10;;;;;;;2.52;97.92;101609.44;4964149;28;20071;-80
2021/01/03 06:25:35;;;;;;;85.47;35.72;;;;;;;2.78;98.55;101655.50;4961120;28;20038;-80
2021/01/03 06:28:07;;;;;;;78.60;33.80;;;;;;;2.79;98.80;101645.81;4968928;28;20541;-80
2021/01/03 06:30:33;;;;;;;88.80;37.78;;;;;;;2.64;98.24;101632.53;4963704;28;20065;-81
2021/01/03 06:33:01;;;;;;;79.47;35.45;;;;;;;2.79;98.72;101658.97;4949943;28;20058;-80
2021/01/03 06:35:34;;;;;;;76.55;34.17;;;;;;;2.79;98.86;101662.50;4965172;28;20494;-80
2021/01/03 06:38:10;;;;;;;78.72;34.40;;;;;;;2.75;98.60;101666.22;4953414;28;20046;-81
2021/01/03 06:40:38;;;;;;;84.63;36.00;;;;;;;2.55;98.48;101633.88;4970274;28;20210;-80
2021/01/03 06:43:25;;;;;;;93.35;36.85;;;;;;;2.73;98.78;101670.72;5000272;28;20058;-80
2021/01/03 06:46:17;;;;;;;94.50;36.80;;;;;;;2.75;99.18;101671.47;4980045;28;20037;-81
2021/01/03 06:48:52;;;;;;;84.57;35.92;;;;;;;2.71;99.01;101676.06;4959326;28;20272;-80
2021/01/03 06:51:22;;;;;;;81.78;34.55;;;;;;;2.73;98.82;101675.97;4979235;28;20045;-81
2021/01/03 06:54:25;;;;;;;89.93;36.08;;;;;;;2.73;98.39;101678.63;4983742;28;20027;-81
2021/01/03 06:57:21;;;;;;;81.60;34.90;;;;;;;2.75;98.46;101682.91;4983154;28;20037;-82
2021/01/03 07:00:09;;;;;;;84.10;35.72;;;;;;;2.74;98.63;101681.19;4969685;28;20090;-81
2021/01/03 07:02:34;;;;;;;91.18;36.70;;;;;;;2.69;98.91;101677.09;4964418;28;20394;-80
2021/01/03 07:05:07;;;;;;;85.57;36.25;;;;;;;2.69;98.90;101680.56;4981381;28;20129;-80
2021/01/03 07:07:34;;;;;;;87.72;36.33;;;;;;;2.68;98.59;101686.78;4952077;28;20035;-80
2021/01/03 07:10:08;;;;;;;92.45;35.70;;;;;;;2.67;98.49;101678.97;4968668;28;20029;-80
2021/01/03 07:12:36;;;;;;;98.05;37.80;;;;;;;2.40;98.57;101640.78;4949159;28;20019;-81
2021/01/03 07:15:01;;;;;;;93.55;37.35;;;;;;;2.49;98.75;101654.44;4968071;28;20062;-80
2021/01/03 07:17:55;;;;;;;101.45;40.03;;;;;;;2.58;99.07;101681.13;4968152;28;20398;-80
2021/01/03 07:20:26;;;;;;;91.72;38.13;;;;;;;2.63;98.60;101683.53;4975318;28;20121;-81
2021/01/03 07:22:51;;;;;;;92.32;37.95;;;;;;;2.65;98.46;101686.94;4959604;28;20086;-81
2021/01/03 07:25:44;;;;;;;102.82;39.80;;;;;;;2.67;98.72;101690.34;4976392;28;20069;-82
2021/01/03 07:28:16;;;;;;;97.05;39.47;;;;;;;2.65;98.58;101689.56;4962765;28;20046;-80
2021/01/03 07:30:49;;;;;;;100.15;39.17;;;;;;;2.58;98.74;101673.22;4961511;28;20137;-79
2021/01/03 07:33:17;;;;;;;102.45;40.05;;;;;;;2.64;98.93;101692.28;4979368;28;20030;-81
2021/01/03 07:35:43;;;;;;;101.93;40.33;;;;;;;2.63;99.04;101699.34;4977907;28;20027;-79
2021/01/03 07:38:29;;;;;;;103.22;40.97;;;;;;;2.32;99.21;101650.03;4984256;28;20118;-80
2021/01/03 07:41:04;;;;;;;105.88;40.17;;;;;;;2.64;98.76;101701.06;4970719;28;20035;-82
2021/01/03 07:43:30;;;;;;;95.68;39.40;;;;;;;2.50;98.51;101679.84;4975813;28;22972;-80
2021/01/03 07:45:55;;;;;;;104.05;40.95;;;;;;;2.64;98.76;101711.59;4979501;28;20089;-81
2021/01/03 07:48:38;;;;;;;101.75;40.45;;;;;;;2.50;98.67;101693.88;4967910;28;20664;-81
2021/01/03 07:51:04;;;;;;;106.45;40.28;;;;;;;2.58;98.78;101715.38;4955948;28;20468;-79
2021/01/03 07:53:36;;;;;;;111.65;41.47;;;;;;;2.59;99.00;101705.72;4979737;28;20306;-80
2021/01/03 07:56:18;;;;;;;108.00;42.70;;;;;;;2.44;98.98;101687.13;4977491;28;20057;-80
2021/01/03 07:58:43;;;;;;;106.10;41.15;;;;;;;2.42;99.03;101678.44;4974499;28;20061;-83
2021/01/03 08:01:09;;;;;;;101.43;39.50;;;;;;;2.07;98.22;101633.72;4991056;28;20512;-80
2021/01/03 08:03:34;;;;;;;104.53;40.63;;;;;;;2.62;98.94;101718.75;4979844;28;20511;-80
2021/01/03 08:06:07;;;;;;;114.15;43.50;;;;;;;2.63;98.61;101724.84;4988071;28;20612;-80
2021/01/03 08:08:32;;;;;;;109.10;41.60;;;;;;;2.66;98.87;101722.06;4957038;28;20023;-80
2021/01/03 08:11:26;;;;;;;111.28;41.33;;;;;;;2.56;98.54;101700.59;4958558;28;20065;-79
2021/01/03 08:13:54;;;;;;;112.40;43.53;;;;;;;2.38;98.54;101679.53;4971081;28;20043;-80
2021/01/03 08:16:24;;;;;;;104.00;40.97;;;;;;;2.69;98.67;101725.38;4945432;28;20423;-80
2021/01/03 08:18:55;;;;;;;110.45;41.33;;;;;;;2.67;98.64;101732.50;4991266;28;20042;-80
2021/01/03 08:21:21;;;;;;;111.85;43.17;;;;;;;2.50;98.60;101707.03;4958766;28;20315;-80
2021/01/03 08:23:47;;;;;;;109.93;43.00;;;;;;;2.66;98.39;101729.97;4934470;28;20051;-80
2021/01/03 08:26:13;;;;;;;109.28;43.10;;;;;;;2.64;98.89;101739.72;4907420;29;20031;-79
2021/01/03 08:28:56;;;;;;;106.25;42.30;;;;;;;2.41;98.53;101702.25;4935680;28;20031;-80
2021/01/03 08:31:21;;;;;;;112.78;43.63;;;;;;;2.26;98.68;101680.16;4960959;28;20031;-79
2021/01/03 08:33:48;;;;;;;112.40;42.70;;;;;;;2.33;98.49;101689.47;4942381;28;20055;-87
2021/01/03 08:36:16;;;;;;;113.78;43.30;;;;;;;2.68;98.25;101751.84;4940889;28;20023;-79
2021/01/03 08:38:42;;;;;;;107.85;40.83;;;;;;;2.39;98.90;101712.00;4940659;29;20059;-80
2021/01/03 08:41:08;;;;;;;110.88;42.22;;;;;;;2.52;98.17;101734.16;4932053;28;20225;-78
2021/01/03 08:43:33;;;;;;;110.68;42.20;;;;;;;2.64;98.43;101751.13;4939376;28;20260;-78
2021/01/03 08:46:03;;;;;;;106.43;42.92;;;;;;;2.72;98.34;101756.84;4944308;28;20037;-78
2021/01/03 08:48:28;;;;;;;107.75;42.45;;;;;;;2.75;98.01;101759.34;4938954;28;20042;-79
2021/01/03 08:51:02;;;;;;;97.53;40.50;;;;;;;2.78;97.94;101758.31;4936231;29;20441;-80
2021/01/03 08:53:28;;;;;;;98.40;40.88;;;;;;;2.78;97.73;101760.97;4938819;28;20126;-82
2021/01/03 08:56:23;;;;;;;95.20;40.78;;;;;;;2.80;97.38;101766.13;4938264;28;20046;-79
2021/01/03 08:58:48;;;;;;;98.03;39.40;;;;;;;2.73;97.58;101761.19;4946869;28;20135;-80
2021/01/03 09:01:30;;;;;;;95.65;39.95;;;;;;;2.71;97.31;101751.69;4919898;29;20046;-80
2021/01/03 09:04:03;;;;;;;99.93;42.33;;;;;;;2.55;97.32;101715.56;4938286;28;20549;-80
2021/01/03 09:06:29;;;;;;;99.00;40.50;;;;;;;2.83;97.52;101763.34;4935831;28;20288;-80
2021/01/03 09:08:54;;;;;;;104.78;42.20;;;;;;;2.88;97.08;101763.97;4951239;28;20031;-79
2021/01/03 09:11:31;;;;;;;103.65;41.60;;;;;;;2.82;96.64;101767.78;4949886;28;20020;-80
2021/01/03 09:14:36;;;;;;;98.90;42.13;;;;;;;2.87;97.18;101775.44;4936397;28;20027;-80
2021/01/03 09:17:11;;;;;;;100.45;43.38;;;;;;;2.80;96.93;101768.78;4914054;29;20414;-79
2021/01/03 09:20:02;;;;;;;117.38;50.03;;;;;;;2.88;96.79;101779.78;4931911;28;20023;-79
2021/01/03 09:22:39;;;;;;;108.00;44.83;;;;;;;2.65;96.73;101749.34;4936367;28;20051;-80
2021/01/03 09:25:06;;;;;;;108.95;44.65;;;;;;;2.89;96.83;101787.59;4963597;28;20098;-79
2021/01/03 09:27:32;;;;;;;103.72;43.85;;;;;;;2.36;96.33;101707.75;4945434;28;20462;-79
2021/01/03 09:30:13;;;;;;;106.68;48.58;;;;;;;2.99;96.56;101795.03;4949033;28;20058;-80
2021/01/03 09:32:39;;;;;;;101.63;44.45;;;;;;;2.28;95.60;101678.31;4965609;28;20035;-80
2021/01/03 09:35:09;;;;;;;95.05;43.83;;;;;;;2.97;95.65;101807.47;4936004;28;20105;-79
2021/01/03 09:37:38;;;;;;;96.20;42.60;;;;;;;2.78;96.42;101773.28;4969314;28;20070;-79
2021/01/03 09:40:22;;;;;;;98.25;44.20;;;;;;;3.03;96.33;101810.63;4954998;28;20039;-79
2021/01/03 09:43:23;;;;;;;88.93;43.13;;;;;;;3.04;95.78;101800.94;4936576;29;20035;-80
2021/01/03 09:46:05;;;;;;;98.18;42.28;;;;;;;3.11;95.48;101806.72;4921720;28;20036;-80
2021/01/03 09:48:36;;;;;;;85.80;40.25;;;;;;;2.94;95.28;101770.72;4951991;28;20062;-80
2021/01/03 09:51:11;;;;;;;90.30;41.75;;;;;;;3.19;94.96;101810.66;4958641;28;20706;-80
2021/01/03 09:53:38;;;;;;;89.72;42.05;;;;;;;3.21;94.96;101807.94;4967944;28;20097;-80
2021/01/03 09:56:06;;;;;;;79.97;39.08;;;;;;;3.27;93.36;101804.13;4962727;28;20035;-80
2021/01/03 09:58:35;;;;;;;;;;;;;;;3.27;94.21;101809.41;4951490;28;21254;-79
2021/01/03 10:01:00;;;;;;;;;;;;;;;3.30;93.29;101812.75;4947917;28;19926;-79
2021/01/03 10:03:38;;;;;;;71.28;34.97;;;;;;;3.18;92.82;101784.38;4932202;29;19931;-79
2021/01/03 10:06:19;;;;;;;73.75;35.35;;;;;;;3.35;92.26;101813.34;4962935;28;20031;-80
2021/01/03 10:08:45;;;;;;;72.25;36.45;;;;;;;3.43;92.65;101815.56;4939411;29;20048;-79
2021/01/03 10:11:10;;;;;;;64.68;33.20;;;;;;;3.41;91.43;101817.44;4955186;28;20486;-79
2021/01/03 10:13:36;;;;;;;72.03;35.63;;;;;;;3.23;91.17;101782.34;4944526;29;20158;-79
2021/01/03 10:16:21;;;;;;;68.22;34.42;;;;;;;3.48;90.93;101820.59;4940646;29;20043;-79
2021/01/03 10:18:46;;;;;;;57.75;31.40;;;;;;;3.55;90.46;101816.69;4942397;28;20458;-79
2021/01/03 10:21:37;;;;;;;55.25;29.17;;;;;;;3.58;89.39;101823.59;4939738;28;20019;-79
2021/01/03 10:24:19;;;;;;;55.10;28.80;;;;;;;3.55;88.03;101826.38;4939416;29;20047;-79
2021/01/03 10:26:47;;;;;;;53.17;28.13;;;;;;;3.55;87.77;101827.25;4940509;29;20039;-79
2021/01/03 10:29:14;;;;;;;48.33;27.70;;;;;;;3.44;86.94;101801.44;4952590;28;20062;-80
2021/01/03 10:31:42;;;;;;;50.38;27.83;;;;;;;3.50;86.64;101814.31;4939363;28;20466;-79
2021/01/03 10:34:08;;;;;;;43.90;24.25;;;;;;;3.62;85.43;101814.56;4942018;28;20151;-79
2021/01/03 10:36:34;;;;;;;49.30;25.27;;;;;;;3.63;85.28;101816.28;4936472;29;20074;-79
2021/01/03 10:38:59;;;;;;;38.45;22.48;;;;;;;3.55;84.44;101803.50;4950475;28;20035;-79
2021/01/03 10:41:29;;;;;;;43.28;23.33;;;;;;;3.58;84.88;101807.75;4932289;28;20031;-79
2021/01/03 10:43:54;;;;;;;42.78;23.13;;;;;;;3.58;84.16;101813.03;4938097;28;20042;-79
2021/01/03 10:46:20;;;;;;;36.67;21.20;;;;;;;3.56;82.81;101815.75;4934681;28;20121;-79
2021/01/03 10:48:45;;;;;;;36.05;20.85;;;;;;;3.60;83.45;101809.38;4935587;28;20043;-79
2021/01/03 10:51:11;;;;;;;36.72;21.48;;;;;;;3.45;83.88;101794.38;4954233;28;20118;-79
2021/01/03 10:53:36;;;;;;;36.53;21.27;;;;;;;3.46;84.41;101804.84;4955220;28;20390;-79
2021/01/03 10:56:03;;;;;;;31.67;19.13;;;;;;;3.47;82.55;101803.03;4938626;29;20508;-79
2021/01/03 10:58:28;;;;;;;33.58;18.90;;;;;;;3.45;82.16;101804.94;4930944;28;20039;-79
2021/01/03 11:00:54;;;;;;;31.55;19.80;;;;;;;3.39;83.37;101802.63;4911646;29;20478;-79
2021/01/03 11:03:19;;;;;;;32.13;19.05;;;;;;;3.43;83.13;101799.72;4963981;28;20584;-79
2021/01/03 11:05:45;;;;;;;34.05;20.10;;;;;;;3.44;83.07;101798.78;4933649;28;20034;-79
2021/01/03 11:08:10;;;;;;;34.92;21.38;;;;;;;3.41;83.27;101806.88;4940182;28;20039;-81
2021/01/03 11:10:36;;;;;;;35.80;20.80;;;;;;;3.46;82.89;101793.47;4969251;28;20038;-78
2021/01/03 11:13:02;;;;;;;32.33;18.90;;;;;;;3.34;83.05;101790.53;4936757;28;20040;-79
2021/01/03 11:15:27;;;;;;;32.83;19.20;;;;;;;3.15;82.70;101750.25;4972761;28;20511;-79
2021/01/03 11:17:53;;;;;;;35.22;19.95;;;;;;;3.36;82.31;101785.19;4952789;28;20045;-79
2021/01/03 11:20:18;;;;;;;29.92;17.77;;;;;;;3.37;82.79;101786.88;4936659;29;20877;-79
2021/01/03 11:22:44;;;;;;;35.45;20.42;;;;;;;3.36;83.81;101796.56;4952163;28;20047;-79
2021/01/03 11:25:11;;;;;;;33.90;20.65;;;;;;;3.39;83.69;101790.28;4934951;28;20047;-78
2021/01/03 11:27:36;;;;;;;34.70;20.10;;;;;;;3.12;84.11;101767.06;4944834;28;20106;-78
2021/01/03 11:30:05;;;;;;;32.97;19.05;;;;;;;3.33;83.41;101794.09;4940084;28;20122;-78
2021/01/03 11:32:30;;;;;;;32.33;19.40;;;;;;;3.30;83.66;101783.72;4940156;28;20031;-78